Time;durP1;ratioP1;P1;durP2;ratioP2;P2;SDS_P1;SDS_P2;PMS_P1;PMS_P2;Temp;Humidity;BMP_temperature;BMP_pressure;BME280_temperature;BME280_humidity;BME280_pressure;Samples;Min_cycle;Max_cycle;Signal;HPM_P1;HPM_P2
2021/10/17 00:00:17;;;;;;;0.00;0.00;;;;;;;15.62;75.63;100487.19;2612851;31;19970;-55
2021/10/17 00:02:46;;;;;;;0.00;0.00;;;;;;;15.63;75.56;100477.50;2610729;31;20569;-54
2021/10/17 00:05:14;;;;;;;0.00;0.00;;;;;;;15.60;75.46;100467.97;2609836;36;20042;-54
2021/10/17 00:07:42;;;;;;;0.00;0.00;;;;;;;15.52;75.74;100454.31;2610557;31;20585;-52
2021/10/17 00:10:16;;;;;;;0.00;0.00;;;;;;;15.64;75.97;100468.72;2612064;31;20041;-55
2021/10/17 00:12:45;;;;;;;0.00;0.00;;;;;;;15.57;75.72;100463.72;2609673;31;20039;-51
2021/10/17 00:15:16;;;;;;;0.00;0.00;;;;;;;15.56;75.91;100462.00;2610603;36;20117;-53
2021/10/17 00:17:44;;;;;;;0.00;0.00;;;;;;;15.65;75.68;100471.25;2608425;31;20034;-54
2021/10/17 00:20:14;;;;;;;0.00;0.00;;;;;;;15.67;76.14;100472.06;2612716;31;20071;-51
2021/10/17 00:22:42;;;;;;;0.00;0.00;;;;;;;15.67;76.02;100474.69;2611262;31;20042;-55
2021/10/17 00:25:10;;;;;;;0.00;0.00;;;;;;;15.68;75.81;100460.59;2612215;31;20042;-54
2021/10/17 00:27:39;;;;;;;0.00;0.00;;;;;;;15.72;75.65;100458.69;2612710;31;20030;-52
2021/10/17 00:30:10;;;;;;;0.00;0.00;;;;;;;15.71;76.08;100457.81;2610959;31;20042;-53
2021/10/17 00:32:38;;;;;;;0.00;0.00;;;;;;;15.71;75.61;100460.47;2612034;31;20066;-54
2021/10/17 00:35:07;;;;;;;0.00;0.00;;;;;;;15.71;75.77;100455.19;2611755;31;20038;-55
2021/10/17 00:37:35;;;;;;;0.00;0.00;;;;;;;15.75;75.51;100456.72;2609683;36;20041;-51
2021/10/17 00:40:10;;;;;;;0.00;0.00;;;;;;;15.79;75.86;100455.66;2612825;31;20037;-53
2021/10/17 00:42:38;;;;;;;0.00;0.00;;;;;;;15.80;75.88;100465.25;2608678;31;20030;-53
2021/10/17 00:45:09;;;;;;;0.03;0.03;;;;;;;15.83;75.84;100454.59;2610116;31;20038;-52
2021/10/17 00:47:36;;;;;;;0.00;0.00;;;;;;;15.82;75.78;100452.03;2610568;31;20030;-53
2021/10/17 00:50:05;;;;;;;0.00;0.00;;;;;;;15.80;74.95;100449.47;2610324;31;20046;-53
2021/10/17 00:52:34;;;;;;;0.00;0.00;;;;;;;15.88;75.69;100454.38;2613133;31;20042;-53
2021/10/17 00:55:03;;;;;;;0.00;0.00;;;;;;;15.88;75.18;100467.53;2611168;31;20058;-53
2021/10/17 00:57:32;;;;;;;0.00;0.00;;;;;;;15.83;75.50;100444.06;2609259;31;20152;-54
2021/10/17 00:59:59;;;;;;;0.00;0.00;;;;;;;15.92;75.79;100465.63;2611073;31;20038;-54
2021/10/17 01:02:26;;;;;;;0.00;0.00;;;;;;;15.93;75.32;100464.69;2610799;31;21187;-54
2021/10/17 01:04:53;;;;;;;0.00;0.00;;;;;;;15.89;75.64;100447.31;2609965;31;20042;-55
2021/10/17 01:07:21;;;;;;;0.00;0.00;;;;;;;15.90;75.47;100438.50;2612245;31;20045;-51
2021/10/17 01:09:48;;;;;;;;;;;;;;;16.06;74.52;100449.97;2610735;31;20039;-52
2021/10/17 01:12:18;;;;;;;0.00;0.00;;;;;;;15.99;74.95;100462.59;2609874;31;20106;-51
2021/10/17 01:14:46;;;;;;;0.00;0.00;;;;;;;16.02;75.16;100453.72;2610819;31;20038;-53
2021/10/17 01:17:13;;;;;;;0.00;0.00;;;;;;;16.00;75.60;100455.53;2610303;31;20037;-54
2021/10/17 01:19:47;;;;;;;0.00;0.00;;;;;;;16.01;75.11;100450.19;2610456;31;20034;-53
2021/10/17 01:22:24;;;;;;;0.00;0.00;;;;;;;15.98;74.88;100441.63;2610760;31;20118;-54
2021/10/17 01:24:55;;;;;;;0.00;0.00;;;;;;;15.98;75.26;100452.16;2607557;36;20031;-52
2021/10/17 01:27:22;;;;;;;0.00;0.00;;;;;;;16.00;75.26;100450.28;2612230;31;20038;-52
2021/10/17 01:29:49;;;;;;;0.00;0.00;;;;;;;16.00;75.29;100456.41;2611077;31;20034;-54
2021/10/17 01:32:17;;;;;;;0.00;0.00;;;;;;;15.98;75.66;100444.25;2609411;36;20038;-52
2021/10/17 01:34:44;;;;;;;0.00;0.00;;;;;;;16.03;75.44;100456.25;2609643;31;20125;-52
2021/10/17 01:37:11;;;;;;;0.00;0.00;;;;;;;16.04;75.70;100447.41;2610678;31;20609;-53
2021/10/17 01:39:38;;;;;;;0.00;0.00;;;;;;;16.03;75.38;100450.13;2608045;31;20030;-51
2021/10/17 01:42:05;;;;;;;0.00;0.00;;;;;;;16.05;75.37;100448.28;2609242;31;20030;-51
2021/10/17 01:44:40;;;;;;;0.00;0.00;;;;;;;16.07;75.42;100447.28;2610682;31;20030;-54
2021/10/17 01:47:08;;;;;;;0.00;0.00;;;;;;;16.03;75.28;100442.25;2610043;31;20039;-52
2021/10/17 01:49:36;;;;;;;0.00;0.00;;;;;;;16.12;75.54;100439.16;2610057;36;20034;-53
2021/10/17 01:52:07;;;;;;;0.00;0.00;;;;;;;16.14;75.85;100442.56;2611152;31;20057;-54
2021/10/17 01:54:38;;;;;;;0.00;0.00;;;;;;;16.16;75.72;100440.69;2609930;31;20122;-53
2021/10/17 01:57:05;;;;;;;0.00;0.00;;;;;;;16.18;75.93;100449.38;2608018;31;20039;-52
2021/10/17 01:59:34;;;;;;;0.00;0.00;;;;;;;16.13;75.21;100425.06;2607753;31;20030;-52
2021/10/17 02:02:19;;;;;;;0.00;0.00;;;;;;;16.23;75.34;100452.63;2609053;31;20030;-50
2021/10/17 02:04:46;;;;;;;0.00;0.00;;;;;;;16.26;75.23;100439.28;2608950;31;20030;-49
2021/10/17 02:07:13;;;;;;;0.00;0.00;;;;;;;16.28;75.55;100436.59;2609466;31;20071;-49
2021/10/17 02:09:40;;;;;;;0.00;0.00;;;;;;;16.28;75.35;100442.72;2608639;31;20138;-52
2021/10/17 02:12:08;;;;;;;0.00;0.00;;;;;;;16.30;75.01;100438.22;2607532;31;20693;-54
2021/10/17 02:14:38;;;;;;;0.00;0.00;;;;;;;16.34;75.29;100438.91;2608456;36;20125;-52
2021/10/17 02:17:06;;;;;;;0.00;0.00;;;;;;;16.36;75.16;100437.03;2608309;31;20034;-51
2021/10/17 02:19:33;;;;;;;0.00;0.00;;;;;;;16.38;75.55;100431.72;2609431;31;20041;-52
2021/10/17 02:22:02;;;;;;;0.00;0.00;;;;;;;16.40;75.45;100416.66;2609343;31;20026;-51
2021/10/17 02:24:30;;;;;;;0.00;0.00;;;;;;;16.40;75.32;100417.53;2611037;31;20054;-53
2021/10/17 02:26:57;;;;;;;0.00;0.00;;;;;;;16.44;74.92;100415.59;2606710;36;20053;-53
2021/10/17 02:29:33;;;;;;;0.00;0.00;;;;;;;16.45;75.67;100419.91;2609448;31;20026;-51
2021/10/17 02:32:16;;;;;;;0.00;0.00;;;;;;;16.47;75.64;100425.94;2607317;31;20030;-52
2021/10/17 02:34:45;;;;;;;0.00;0.00;;;;;;;16.48;75.34;100414.50;2609659;31;20715;-52
2021/10/17 02:37:12;;;;;;;0.00;0.00;;;;;;;16.51;75.32;100420.44;2608121;31;20026;-51
2021/10/17 02:39:39;;;;;;;0.00;0.00;;;;;;;16.53;75.33;100420.38;2608404;31;20035;-51
2021/10/17 02:42:06;;;;;;;0.00;0.00;;;;;;;16.53;75.15;100407.22;2608798;31;20587;-53
2021/10/17 02:44:33;;;;;;;0.00;0.00;;;;;;;16.52;75.46;100405.47;2609317;36;20918;-50
2021/10/17 02:47:00;;;;;;;0.00;0.00;;;;;;;16.51;75.05;100388.81;2609709;31;20130;-50
2021/10/17 02:49:27;;;;;;;0.03;0.03;;;;;;;16.60;74.91;100398.03;2609060;31;20562;-53
2021/10/17 02:51:55;;;;;;;0.00;0.00;;;;;;;16.62;75.04;100398.78;2608642;31;20058;-53
2021/10/17 02:54:24;;;;;;;0.00;0.00;;;;;;;16.63;75.16;100397.88;2609971;31;20038;-50
2021/10/17 02:56:53;;;;;;;0.00;0.00;;;;;;;16.66;75.31;100392.44;2609270;36;20195;-51
2021/10/17 02:59:30;;;;;;;0.00;0.00;;;;;;;16.70;75.09;100393.13;633239;36;10023530;-52
2021/10/17 03:01:57;;;;;;;0.00;0.00;;;;;;;16.68;74.85;100395.84;2607949;31;20262;-50
2021/10/17 03:04:26;;;;;;;0.00;0.00;;;;;;;16.72;74.97;100391.28;2610501;31;20042;-49
2021/10/17 03:06:56;;;;;;;0.00;0.00;;;;;;;16.72;75.27;100402.69;2609375;31;20041;-52
2021/10/17 03:09:23;;;;;;;0.00;0.00;;;;;;;16.73;75.00;100393.88;2610592;31;20685;-51
2021/10/17 03:11:51;;;;;;;0.00;0.00;;;;;;;16.76;74.91;100388.41;2609568;31;20031;-52
2021/10/17 03:14:18;;;;;;;0.00;0.00;;;;;;;16.77;75.31;100384.84;2608984;31;20034;-50
2021/10/17 03:16:47;;;;;;;0.00;0.00;;;;;;;16.77;75.44;100374.28;2609299;31;20034;-52
2021/10/17 03:19:15;;;;;;;0.00;0.00;;;;;;;16.79;75.19;100377.72;2609161;31;20030;-52
2021/10/17 03:21:44;;;;;;;0.00;0.00;;;;;;;16.79;75.37;100377.72;2608559;31;20046;-52
2021/10/17 03:24:11;;;;;;;0.00;0.00;;;;;;;16.78;75.05;100359.34;2609910;31;20031;-50
2021/10/17 03:26:38;;;;;;;0.00;0.00;;;;;;;16.67;75.18;100351.09;2610010;31;20129;-49
2021/10/17 03:29:05;;;;;;;0.00;0.00;;;;;;;16.71;75.63;100355.28;2608334;31;20042;-52
2021/10/17 03:31:37;;;;;;;0.00;0.00;;;;;;;16.78;75.64;100370.75;2610095;31;20147;-53
2021/10/17 03:34:05;;;;;;;0.00;0.00;;;;;;;16.79;75.16;100364.53;2609449;31;20034;-48
2021/10/17 03:36:32;;;;;;;0.10;0.10;;;;;;;16.79;75.22;100356.63;2609824;36;20446;-54
2021/10/17 03:39:00;;;;;;;0.00;0.00;;;;;;;16.75;75.31;100349.78;2609326;36;20042;-52
2021/10/17 03:41:29;;;;;;;0.00;0.00;;;;;;;16.81;75.44;100354.72;2611159;31;20148;-53
2021/10/17 03:43:57;;;;;;;0.00;0.00;;;;;;;16.81;75.36;100349.47;2608610;31;20034;-49
2021/10/17 03:46:24;;;;;;;0.10;0.10;;;;;;;16.84;75.64;100351.94;2609472;31;20042;-52
2021/10/17 03:48:53;;;;;;;0.00;0.00;;;;;;;16.83;75.84;100337.06;2611236;31;20109;-52
2021/10/17 03:51:23;;;;;;;0.00;0.00;;;;;;;16.85;75.42;100345.72;2611026;31;20534;-52
2021/10/17 03:53:54;;;;;;;0.00;0.00;;;;;;;16.86;75.49;100341.28;2610121;31;20034;-53
2021/10/17 03:56:21;;;;;;;0.03;0.03;;;;;;;16.89;75.43;100345.56;2610853;31;20539;-50
2021/10/17 03:58:49;;;;;;;0.00;0.00;;;;;;;16.91;75.61;100343.69;2610865;31;20034;-51
2021/10/17 04:01:16;;;;;;;0.00;0.00;;;;;;;16.91;75.47;100343.69;2609398;31;20054;-50
2021/10/17 04:03:43;;;;;;;0.00;0.00;;;;;;;16.92;75.62;100330.41;2609571;31;20134;-48
2021/10/17 04:06:11;;;;;;;;;;;;;;;17.02;73.83;100336.03;2608772;36;20598;-53
2021/10/17 04:08:39;;;;;;;0.00;0.00;;;;;;;16.96;74.85;100331.09;2609947;36;19950;-52
2021/10/17 04:11:06;;;;;;;0.00;0.00;;;;;;;16.96;75.34;100331.09;2611236;31;20042;-51
2021/10/17 04:13:33;;;;;;;0.00;0.00;;;;;;;16.96;75.46;100326.66;2611075;31;20034;-51
2021/10/17 04:16:03;;;;;;;0.00;0.00;;;;;;;16.97;75.20;100332.78;2612614;31;20577;-49
2021/10/17 04:18:30;;;;;;;0.00;0.00;;;;;;;16.97;75.34;100332.78;2613314;31;20038;-50
2021/10/17 04:20:58;;;;;;;0.00;0.00;;;;;;;16.98;75.07;100329.22;2612532;31;20034;-52
2021/10/17 04:23:25;;;;;;;0.00;0.00;;;;;;;16.92;75.17;100311.09;2611387;36;20039;-52
2021/10/17 04:25:52;;;;;;;0.00;0.00;;;;;;;16.99;75.47;100320.38;2611264;36;20170;-51
2021/10/17 04:28:23;;;;;;;0.00;0.00;;;;;;;17.01;75.10;100318.50;2610912;31;20038;-52
2021/10/17 04:30:50;;;;;;;0.03;0.03;;;;;;;17.00;75.08;100317.66;2613391;31;20582;-51
2021/10/17 04:33:18;;;;;;;0.05;0.05;;;;;;;17.02;75.41;100320.19;2611984;31;20050;-50
2021/10/17 04:35:46;;;;;;;0.00;0.00;;;;;;;16.98;74.75;100321.31;2613454;31;20026;-50
2021/10/17 04:38:14;;;;;;;0.00;0.00;;;;;;;17.06;75.06;100327.03;2611647;31;20322;-52
2021/10/17 04:40:41;;;;;;;0.00;0.00;;;;;;;17.06;75.58;100333.13;2614092;31;20069;-50
2021/10/17 04:43:13;;;;;;;0.00;0.00;;;;;;;17.01;74.80;100326.41;2611843;31;20554;-54
2021/10/17 04:45:42;;;;;;;0.00;0.00;;;;;;;17.10;75.08;100347.88;2612247;36;20870;-51
2021/10/17 04:48:11;;;;;;;0.00;0.00;;;;;;;17.10;74.94;100344.38;2613288;31;20034;-50
2021/10/17 04:50:38;;;;;;;0.10;0.10;;;;;;;17.11;74.86;100352.19;2614463;31;20041;-55
2021/10/17 04:53:06;;;;;;;0.00;0.00;;;;;;;17.13;74.87;100349.47;2612335;31;20034;-53
2021/10/17 04:55:33;;;;;;;0.00;0.00;;;;;;;17.16;74.97;100351.09;2611280;31;20073;-50
2021/10/17 04:58:05;;;;;;;0.00;0.00;;;;;;;17.17;74.64;100347.53;2613212;31;20439;-52
2021/10/17 05:00:33;;;;;;;0.00;0.00;;;;;;;17.19;74.58;100353.59;2612711;31;20042;-50
2021/10/17 05:03:02;;;;;;;0.00;0.00;;;;;;;17.21;74.77;100351.69;2610302;36;20569;-53
2021/10/17 05:05:30;;;;;;;0.00;0.00;;;;;;;17.21;75.23;100352.56;2611979;31;20422;-49
2021/10/17 05:07:58;;;;;;;0.00;0.00;;;;;;;17.23;74.92;100349.81;2614449;31;20034;-52
2021/10/17 05:10:28;;;;;;;0.00;0.00;;;;;;;17.22;75.09;100343.69;2611458;31;20182;-54
2021/10/17 05:12:55;;;;;;;0.00;0.00;;;;;;;17.24;75.09;100341.84;2610874;31;20030;-51
2021/10/17 05:15:22;;;;;;;;;;;;;;;17.32;73.74;100339.59;2613294;31;20038;-54
2021/10/17 05:17:50;;;;;;;0.00;0.00;;;;;;;17.27;74.67;100349.56;2612578;31;19954;-49
2021/10/17 05:20:18;;;;;;;0.00;0.00;;;;;;;17.24;75.12;100341.00;2612520;31;20129;-51
2021/10/17 05:22:45;;;;;;;0.00;0.00;;;;;;;17.23;75.17;100336.63;2611637;31;20042;-51
2021/10/17 05:25:13;;;;;;;0.00;0.00;;;;;;;17.23;75.08;100340.09;2610443;36;20083;-49
2021/10/17 05:27:42;;;;;;;0.00;0.00;;;;;;;17.24;75.10;100344.47;2612730;31;20035;-52
2021/10/17 05:30:09;;;;;;;0.00;0.00;;;;;;;17.22;75.20;100354.25;2612725;31;20038;-52
2021/10/17 05:32:37;;;;;;;0.05;0.05;;;;;;;17.22;75.71;100348.97;2611477;31;20050;-50
2021/10/17 05:35:04;;;;;;;0.00;0.00;;;;;;;17.21;75.52;100344.63;2611043;31;20060;-52
2021/10/17 05:37:31;;;;;;;0.03;0.03;;;;;;;17.21;75.82;100347.28;2612688;31;20085;-52
2021/10/17 05:39:58;;;;;;;0.00;0.00;;;;;;;17.19;76.15;100349.16;2611293;31;20041;-50
2021/10/17 05:42:26;;;;;;;0.00;0.00;;;;;;;17.14;76.18;100335.38;2612452;31;20030;-50
2021/10/17 05:44:52;;;;;;;0.00;0.00;;;;;;;17.16;75.87;100344.03;2611421;31;20037;-50
2021/10/17 05:47:21;;;;;;;0.00;0.00;;;;;;;17.15;76.13;100349.41;2612725;31;20537;-52
2021/10/17 05:49:49;;;;;;;0.03;0.03;;;;;;;17.14;76.55;100347.72;2615130;31;20035;-51
2021/10/17 05:52:16;;;;;;;0.00;0.00;;;;;;;17.14;76.23;100359.13;2610622;31;20059;-50
2021/10/17 05:54:43;;;;;;;;;;;;;;;17.21;74.14;100352.56;2611841;31;20486;-52
2021/10/17 05:57:11;;;;;;;0.10;0.10;;;;;;;17.09;76.38;100347.97;2612247;31;19951;-54
2021/10/17 05:59:37;;;;;;;0.05;0.05;;;;;;;17.16;76.09;100354.59;2613357;31;20118;-52
2021/10/17 06:02:05;;;;;;;0.00;0.00;;;;;;;17.17;76.08;100350.16;2610206;31;20038;-52
2021/10/17 06:04:40;;;;;;;0.00;0.00;;;;;;;17.16;76.10;100353.75;2613372;31;20034;-53
2021/10/17 06:07:12;;;;;;;0.00;0.00;;;;;;;17.16;76.50;100365.16;2611000;31;20035;-51
2021/10/17 06:09:40;;;;;;;0.00;0.00;;;;;;;17.10;76.41;100349.66;2611522;31;20478;-51
2021/10/17 06:12:09;;;;;;;0.03;0.03;;;;;;;17.16;76.60;100359.88;2611138;36;21313;-53
2021/10/17 06:14:37;;;;;;;0.00;0.00;;;;;;;17.17;76.52;100361.56;2611658;31;20058;-52
2021/10/17 06:17:04;;;;;;;;;;;;;;;17.25;75.26;100356.72;2611835;31;20027;-51
2021/10/17 06:19:34;;;;;;;0.00;0.00;;;;;;;17.21;76.57;100362.25;2612146;31;19954;-53
2021/10/17 06:22:03;;;;;;;0.08;0.08;;;;;;;17.20;76.25;100366.69;2611977;31;20034;-52
2021/10/17 06:24:35;;;;;;;0.00;0.00;;;;;;;17.11;76.42;100344.28;2610646;31;20042;-53
2021/10/17 06:27:03;;;;;;;0.10;0.10;;;;;;;17.22;76.33;100375.34;2611630;36;20091;-49
2021/10/17 06:29:31;;;;;;;0.05;0.05;;;;;;;17.20;76.55;100374.59;2610568;31;20093;-53
2021/10/17 06:32:02;;;;;;;0.00;0.00;;;;;;;17.22;76.57;100370.06;2613151;31;20069;-50
2021/10/17 06:34:32;;;;;;;0.00;0.00;;;;;;;17.23;76.52;100377.06;2611783;36;20034;-52
2021/10/17 06:37:00;;;;;;;;;;;;;;;17.31;74.54;100374.84;2610030;31;20038;-52
2021/10/17 06:39:27;;;;;;;0.00;0.00;;;;;;;17.25;75.99;100375.19;2612188;31;20079;-53
2021/10/17 06:41:54;;;;;;;0.00;0.00;;;;;;;17.22;76.26;100364.78;2612548;31;20031;-50
2021/10/17 06:44:39;;;;;;;0.00;0.00;;;;;;;17.26;76.16;100370.78;2612304;31;20044;-49
2021/10/17 06:47:06;;;;;;;0.00;0.00;;;;;;;17.26;75.90;100363.69;2613585;31;20058;-49
2021/10/17 06:49:33;;;;;;;0.00;0.00;;;;;;;17.19;75.97;100359.72;2613770;31;20530;-51
2021/10/17 06:52:02;;;;;;;0.00;0.00;;;;;;;17.25;76.02;100375.19;2607965;31;20042;-52
2021/10/17 06:54:29;;;;;;;0.00;0.00;;;;;;;17.27;75.72;100383.03;2613163;31;20043;-52
2021/10/17 06:56:57;;;;;;;0.00;0.00;;;;;;;17.26;75.86;100395.38;2610917;31;20038;-50
2021/10/17 06:59:24;;;;;;;0.10;0.10;;;;;;;17.26;75.83;100397.16;2610677;36;20133;-51
2021/10/17 07:01:51;;;;;;;0.10;0.10;;;;;;;17.28;75.97;100408.47;2612451;31;20061;-54
2021/10/17 07:04:18;;;;;;;0.00;0.00;;;;;;;17.29;76.18;100411.03;2612928;31;20086;-51
2021/10/17 07:06:46;;;;;;;0.00;0.00;;;;;;;17.30;76.37;100407.47;2612072;31;20050;-49
2021/10/17 07:09:15;;;;;;;0.00;0.00;;;;;;;17.31;76.18;100409.16;2612016;36;20039;-53
2021/10/17 07:11:47;;;;;;;0.00;0.00;;;;;;;17.31;76.07;100411.78;2614033;31;20057;-53
2021/10/17 07:14:22;;;;;;;0.00;0.00;;;;;;;17.34;75.92;100414.28;2608275;31;20054;-52
2021/10/17 07:17:12;;;;;;;0.00;0.00;;;;;;;17.35;75.73;100401.94;2611570;31;20130;-52
2021/10/17 07:19:39;;;;;;;0.10;0.10;;;;;;;17.36;75.87;100406.28;2608797;31;20035;-52
2021/10/17 07:22:07;;;;;;;0.00;0.00;;;;;;;17.37;75.68;100398.25;2611994;31;20057;-52
2021/10/17 07:24:40;;;;;;;0.00;0.00;;;;;;;17.38;75.64;100405.22;2613255;31;20030;-53
2021/10/17 07:27:07;;;;;;;0.00;0.00;;;;;;;17.39;75.65;100403.47;2612822;31;20244;-50
2021/10/17 07:29:34;;;;;;;0.00;0.00;;;;;;;17.42;75.67;100402.44;2611438;31;20179;-53
2021/10/17 07:32:01;;;;;;;0.00;0.00;;;;;;;17.42;75.54;100402.44;2611235;36;20667;-52
2021/10/17 07:34:29;;;;;;;0.00;0.00;;;;;;;17.44;75.79;100411.13;2611873;31;20058;-52
2021/10/17 07:36:56;;;;;;;0.00;0.00;;;;;;;17.45;75.74;100403.13;2614493;31;20888;-48
2021/10/17 07:39:28;;;;;;;0.00;0.00;;;;;;;17.46;75.58;100409.25;2608224;31;20030;-53
2021/10/17 07:41:56;;;;;;;0.00;0.00;;;;;;;17.46;75.78;100406.59;2611284;31;20031;-51
2021/10/17 07:44:24;;;;;;;0.10;0.10;;;;;;;17.48;75.39;100404.72;2610308;31;20034;-52
2021/10/17 07:46:58;;;;;;;0.03;0.03;;;;;;;17.48;75.68;100410.84;2611870;31;20679;-52
2021/10/17 07:49:29;;;;;;;0.00;0.00;;;;;;;17.48;75.27;100418.78;2627650;31;20049;-52
2021/10/17 07:51:57;;;;;;;0.10;0.10;;;;;;;17.48;75.22;100407.38;2617797;31;20587;-53
2021/10/17 07:54:26;;;;;;;0.00;0.00;;;;;;;17.49;75.56;100417.00;2611253;31;20041;-53
2021/10/17 07:56:54;;;;;;;0.00;0.00;;;;;;;17.50;75.26;100421.34;2630249;31;20057;-53
2021/10/17 07:59:28;;;;;;;0.00;0.00;;;;;;;17.50;75.09;100416.06;2612828;31;20114;-50
2021/10/17 08:01:56;;;;;;;0.10;0.10;;;;;;;17.52;75.54;100430.03;2612892;31;20042;-52
2021/10/17 08:04:38;;;;;;;0.00;0.00;;;;;;;17.55;75.80;100425.44;2628904;31;20030;-50
2021/10/17 08:07:14;;;;;;;0.03;0.03;;;;;;;17.60;75.59;100427.81;2616425;31;20056;-52
2021/10/17 08:09:43;;;;;;;0.03;0.03;;;;;;;17.66;75.60;100427.47;2613258;31;20046;-53
2021/10/17 08:12:10;;;;;;;0.00;0.00;;;;;;;17.71;75.35;100432.50;2613379;31;20042;-53
2021/10/17 08:14:38;;;;;;;0.00;0.00;;;;;;;17.75;75.45;100437.53;2613968;31;22383;-52
2021/10/17 08:17:06;;;;;;;0.00;0.00;;;;;;;17.78;74.95;100434.72;2609106;31;20038;-54
2021/10/17 08:20:06;;;;;;;0.00;0.00;;;;;;;17.82;74.85;100428.31;2574154;31;2004186;-53
2021/10/17 08:22:35;;;;;;;0.00;0.00;;;;;;;17.83;74.61;100430.03;2610568;31;20035;-48
2021/10/17 08:25:07;;;;;;;0.00;0.00;;;;;;;17.87;75.04;100430.72;2614826;31;20031;-52
2021/10/17 08:27:39;;;;;;;0.00;0.00;;;;;;;17.92;74.56;100433.09;2613287;31;20050;-52
2021/10/17 08:30:08;;;;;;;0.00;0.00;;;;;;;17.91;74.87;100439.31;2611675;31;20081;-51
2021/10/17 08:32:41;;;;;;;0.00;0.00;;;;;;;17.93;74.62;100434.78;2611878;31;20034;-53
2021/10/17 08:35:12;;;;;;;0.00;0.00;;;;;;;17.95;74.44;100438.22;2610720;31;20445;-53
2021/10/17 08:37:41;;;;;;;0.00;0.00;;;;;;;17.89;73.81;100434.09;2612933;31;20069;-49
2021/10/17 08:40:11;;;;;;;0.00;0.00;;;;;;;17.87;74.47;100426.28;2613721;31;20156;-53
2021/10/17 08:43:05;;;;;;;0.00;0.00;;;;;;;17.89;73.70;100427.06;2575492;31;2004371;-52
2021/10/17 08:45:43;;;;;;;0.05;0.05;;;;;;;17.95;73.37;100428.50;2610007;31;20084;-49
2021/10/17 08:48:11;;;;;;;0.10;0.10;;;;;;;17.96;73.62;100435.47;2612269;31;20034;-53
2021/10/17 08:50:51;;;;;;;0.00;0.00;;;;;;;17.97;73.94;100445.09;2611050;31;20042;-53
2021/10/17 08:53:18;;;;;;;0.08;0.08;;;;;;;17.97;73.98;100447.72;2629369;31;20035;-54
2021/10/17 08:55:55;;;;;;;0.10;0.10;;;;;;;18.00;74.20;100446.72;2611615;31;20027;-53
2021/10/17 08:58:28;;;;;;;0.00;0.00;;;;;;;18.05;74.34;100444.66;2611559;36;20695;-53
2021/10/17 09:01:09;;;;;;;0.00;0.00;;;;;;;18.12;73.55;100435.44;2611896;31;20031;-49
2021/10/17 09:04:05;;;;;;;0.00;0.00;;;;;;;18.17;73.17;100443.94;2579372;31;2004624;-51
2021/10/17 09:06:56;;;;;;;0.00;0.00;;;;;;;18.15;73.48;100451.97;2577585;31;2004291;-52
2021/10/17 09:09:23;;;;;;;0.00;0.00;;;;;;;18.18;73.26;100445.63;2614453;31;20030;-52
2021/10/17 09:11:57;;;;;;;0.03;0.03;;;;;;;18.20;73.29;100454.34;2617100;31;20163;-52
2021/10/17 09:14:30;;;;;;;0.00;0.00;;;;;;;18.22;73.88;100446.31;2610586;31;20037;-53
2021/10/17 09:16:58;;;;;;;0.00;0.00;;;;;;;18.20;73.47;100443.78;2610341;31;20030;-52
2021/10/17 09:19:26;;;;;;;;;;;;;;;18.29;72.60;100458.22;2612731;31;20671;-51
2021/10/17 09:22:10;;;;;;;0.00;0.00;;;;;;;18.27;72.08;100465.41;2612862;31;19958;-54
2021/10/17 09:24:42;;;;;;;0.00;0.00;;;;;;;18.24;72.41;100469.06;2613895;31;20031;-51
2021/10/17 09:27:12;;;;;;;0.00;0.00;;;;;;;18.24;72.81;100455.84;2613203;31;20026;-52
2021/10/17 09:29:42;;;;;;;0.00;0.00;;;;;;;18.26;72.68;100463.69;2611033;36;20621;-52
2021/10/17 09:32:15;;;;;;;0.00;0.00;;;;;;;18.26;72.50;100464.56;2613109;31;20446;-53
2021/10/17 09:34:55;;;;;;;0.00;0.00;;;;;;;18.31;72.22;100467.78;2611245;36;20038;-53
2021/10/17 09:37:34;;;;;;;0.00;0.00;;;;;;;18.33;71.99;100460.59;2611351;31;20058;-52
2021/10/17 09:40:24;;;;;;;0.03;0.03;;;;;;;18.35;72.19;100463.16;2575468;31;2004528;-51
2021/10/17 09:43:08;;;;;;;0.00;0.00;;;;;;;18.38;71.14;100466.47;2612244;31;20037;-53
2021/10/17 09:45:43;;;;;;;0.00;0.00;;;;;;;18.38;71.59;100453.25;2610275;31;20845;-48
2021/10/17 09:48:26;;;;;;;0.00;0.00;;;;;;;18.41;71.48;100462.81;2612905;31;20045;-52
2021/10/17 09:51:05;;;;;;;0.05;0.05;;;;;;;18.53;71.27;100463.84;2611873;31;20034;-53
2021/10/17 09:53:51;;;;;;;0.00;0.00;;;;;;;18.58;71.23;100470.56;2612381;31;20035;-52
2021/10/17 09:56:33;;;;;;;0.00;0.00;;;;;;;18.63;71.22;100463.22;2612959;31;20046;-51
2021/10/17 09:59:11;;;;;;;0.00;0.00;;;;;;;18.62;70.53;100456.22;2612087;31;20058;-53
2021/10/17 10:01:41;;;;;;;0.00;0.00;;;;;;;18.70;70.37;100473.44;2613436;31;20038;-52
2021/10/17 10:04:11;;;;;;;0.10;0.10;;;;;;;18.73;70.56;100468.00;2610023;31;20030;-50
2021/10/17 10:06:39;;;;;;;0.08;0.08;;;;;;;18.73;70.32;100476.78;2611814;31;20049;-52
2021/10/17 10:09:10;;;;;;;0.00;0.00;;;;;;;18.80;70.21;100472.81;2613240;31;20057;-50
2021/10/17 10:11:38;;;;;;;0.00;0.00;;;;;;;18.79;69.84;100481.69;2613020;31;20154;-54
2021/10/17 10:14:08;;;;;;;0.00;0.00;;;;;;;18.82;69.15;100484.16;2611297;31;20208;-52
2021/10/17 10:16:35;;;;;;;0.10;0.10;;;;;;;18.81;68.81;100485.13;2611026;31;20732;-52
2021/10/17 10:19:06;;;;;;;0.00;0.00;;;;;;;18.84;69.17;100481.41;2613217;31;20034;-53
2021/10/17 10:21:35;;;;;;;0.10;0.10;;;;;;;18.85;70.26;100483.97;2611501;31;20022;-52
2021/10/17 10:24:04;;;;;;;0.00;0.00;;;;;;;18.86;68.66;100480.41;2609789;31;22133;-53
2021/10/17 10:26:33;;;;;;;0.10;0.10;;;;;;;18.82;70.57;100484.16;2612929;31;20035;-50
2021/10/17 10:29:01;;;;;;;0.05;0.05;;;;;;;18.84;70.64;100487.56;2610065;31;20030;-53
2021/10/17 10:31:40;;;;;;;0.00;0.00;;;;;;;18.90;70.03;100496.91;2610795;31;20050;-52
2021/10/17 10:34:08;;;;;;;0.00;0.00;;;;;;;18.86;70.34;100488.34;2613493;31;20046;-51
2021/10/17 10:36:43;;;;;;;0.00;0.00;;;;;;;18.91;69.94;100491.56;2611386;31;20034;-53
2021/10/17 10:39:18;;;;;;;0.00;0.00;;;;;;;18.86;70.11;100480.41;2611116;36;20564;-51
2021/10/17 10:41:53;;;;;;;0.00;0.00;;;;;;;18.88;69.42;100486.44;2609955;31;20038;-52
2021/10/17 10:44:31;;;;;;;0.00;0.00;;;;;;;18.94;69.13;100487.84;2613716;31;20034;-51
2021/10/17 10:47:19;;;;;;;0.00;0.00;;;;;;;18.90;70.45;100487.19;2610536;36;20034;-53
2021/10/17 10:49:48;;;;;;;0.00;0.00;;;;;;;18.91;69.51;100488.91;2610527;36;20104;-50
2021/10/17 10:52:43;;;;;;;0.00;0.00;;;;;;;18.97;69.28;100498.25;2612143;31;20026;-51
2021/10/17 10:55:35;;;;;;;0.00;0.00;;;;;;;18.92;69.19;100490.59;2575074;36;2005091;-53
2021/10/17 10:58:22;;;;;;;0.00;0.00;;;;;;;18.99;69.97;100495.50;2576246;31;2004300;-51
2021/10/17 11:00:50;;;;;;;0.00;0.00;;;;;;;18.93;70.61;100496.75;2611067;31;20045;-50
2021/10/17 11:03:18;;;;;;;0.00;0.00;;;;;;;18.97;69.29;100502.72;2611071;31;20829;-49
2021/10/17 11:06:04;;;;;;;0.05;0.05;;;;;;;19.01;68.86;100512.13;2609513;31;20022;-50
2021/10/17 11:08:33;;;;;;;0.00;0.00;;;;;;;18.98;69.29;100507.03;2607198;31;20883;-53
2021/10/17 11:11:00;;;;;;;0.00;0.00;;;;;;;18.95;70.25;100504.56;2611361;31;20104;-51
2021/10/17 11:13:33;;;;;;;0.00;0.00;;;;;;;18.95;70.37;100509.88;2612928;31;20607;-53
2021/10/17 11:16:02;;;;;;;0.10;0.10;;;;;;;18.97;69.85;100516.78;2611498;31;20030;-53
2021/10/17 11:18:32;;;;;;;0.00;0.00;;;;;;;18.98;70.05;100520.28;2614191;31;20047;-52
2021/10/17 11:21:00;;;;;;;0.00;0.00;;;;;;;18.98;69.10;100520.28;2611364;31;20031;-52
2021/10/17 11:23:31;;;;;;;0.10;0.10;;;;;;;18.99;70.99;100506.94;2612532;31;20034;-51
2021/10/17 11:26:00;;;;;;;0.00;0.00;;;;;;;19.02;68.21;100521.81;2613666;31;20057;-52
2021/10/17 11:28:28;;;;;;;0.10;0.10;;;;;;;19.02;68.34;100532.38;2612168;36;20038;-51
2021/10/17 11:31:24;;;;;;;0.10;0.10;;;;;;;19.09;68.34;100525.75;2611806;36;20038;-49
2021/10/17 11:33:52;;;;;;;0.00;0.00;;;;;;;19.03;68.21;100523.50;2575168;36;2004382;-51
2021/10/17 11:36:20;;;;;;;0.00;0.00;;;;;;;18.97;69.79;100515.94;2611582;31;20065;-54
2021/10/17 11:38:52;;;;;;;0.00;0.00;;;;;;;19.08;68.38;100526.72;2612776;31;20030;-51
2021/10/17 11:41:20;;;;;;;0.10;0.10;;;;;;;19.05;69.23;100537.47;2611587;31;20069;-53